createdAt,value
2023-09-08T00:01:45.387Z,14.98
2023-09-08T00:04:13.060Z,15.82
2023-09-08T00:06:40.708Z,16.85
2023-09-08T00:09:08.823Z,14.15
2023-09-08T00:11:36.405Z,12.27
2023-09-08T00:14:04.773Z,10.98
2023-09-08T00:16:32.454Z,11.13
2023-09-08T00:18:59.932Z,9.10
2023-09-08T00:21:27.995Z,11.00
2023-09-08T00:23:55.375Z,8.45
2023-09-08T00:26:22.945Z,8.38
2023-09-08T00:28:51.164Z,9.55
2023-09-08T00:31:18.616Z,10.18
2023-09-08T00:33:45.916Z,8.85
2023-09-08T00:36:13.627Z,9.30
2023-09-08T00:38:40.787Z,9.18
2023-09-08T00:41:09.072Z,7.20
2023-09-08T00:43:36.346Z,8.07
2023-09-08T00:46:05.068Z,7.75
2023-09-08T00:48:33.020Z,9.52
2023-09-08T00:51:00.824Z,8.13
2023-09-08T00:53:28.299Z,11.10
2023-09-08T00:55:57.682Z,12.07
2023-09-08T00:58:24.915Z,9.80
2023-09-08T01:00:52.532Z,8.13
2023-09-08T01:03:20.046Z,8.45
2023-09-08T01:05:49.606Z,10.88
2023-09-08T01:08:18.227Z,8.23
2023-09-08T01:10:46.486Z,9.80
2023-09-08T01:13:15.240Z,8.70
2023-09-08T01:15:42.829Z,10.67
2023-09-08T01:18:10.934Z,7.43
2023-09-08T01:21:05.008Z,8.95
2023-09-08T01:23:57.016Z,10.30
2023-09-08T01:26:30.939Z,9.88
2023-09-08T01:28:58.914Z,6.75
2023-09-08T01:31:31.131Z,8.48
2023-09-08T01:34:02.811Z,12.45
2023-09-08T01:36:31.790Z,9.75
2023-09-08T01:38:58.968Z,8.63
2023-09-08T01:41:26.977Z,7.25
2023-09-08T01:43:54.236Z,8.45
2023-09-08T01:46:21.782Z,8.35
2023-09-08T01:48:49.035Z,10.10
2023-09-08T01:51:16.514Z,10.35
2023-09-08T01:53:43.618Z,7.40
2023-09-08T01:56:11.530Z,9.70
2023-09-08T01:58:39.044Z,12.32
2023-09-08T02:01:07.144Z,7.28
2023-09-08T02:03:36.008Z,9.90
2023-09-08T02:06:03.600Z,7.05
2023-09-08T02:08:32.004Z,9.82
2023-09-08T02:11:00.289Z,8.93
2023-09-08T02:13:27.422Z,10.85
2023-09-08T02:15:55.027Z,9.40
2023-09-08T02:18:22.237Z,7.35
2023-09-08T02:20:49.775Z,10.18
2023-09-08T02:23:16.921Z,9.73
2023-09-08T02:25:44.518Z,7.05
2023-09-08T02:28:12.068Z,9.13
2023-09-08T02:30:40.442Z,6.50
2023-09-08T02:33:07.818Z,7.10
2023-09-08T02:35:39.347Z,7.45
2023-09-08T02:38:07.071Z,5.50
2023-09-08T02:40:37.747Z,7.22
2023-09-08T02:43:06.279Z,8.52
2023-09-08T02:45:36.295Z,11.45
2023-09-08T02:48:04.403Z,7.80
2023-09-08T02:50:32.451Z,7.35
2023-09-08T02:52:59.631Z,8.35
2023-09-08T02:55:27.283Z,8.40
2023-09-08T02:57:55.015Z,26.83
2023-09-08T03:00:22.451Z,12.35
2023-09-08T03:02:50.194Z,13.50
2023-09-08T03:05:17.956Z,8.77
2023-09-08T03:07:50.209Z,7.72
2023-09-08T03:10:17.820Z,6.95
2023-09-08T03:12:45.012Z,7.45
2023-09-08T03:15:12.499Z,13.40
2023-09-08T03:17:39.783Z,7.25
2023-09-08T03:20:11.456Z,11.02
2023-09-08T03:22:38.654Z,8.50
2023-09-08T03:25:07.008Z,9.00
2023-09-08T03:27:34.187Z,10.70
2023-09-08T03:30:01.714Z,15.50
2023-09-08T03:32:30.428Z,19.13
2023-09-08T03:34:58.162Z,9.07
2023-09-08T03:37:27.259Z,7.97
2023-09-08T03:39:54.797Z,9.23
2023-09-08T03:42:22.141Z,11.10
2023-09-08T03:44:49.850Z,9.10
2023-09-08T03:47:17.240Z,8.55
2023-09-08T03:49:44.815Z,31.90
2023-09-08T03:52:13.393Z,10.30
2023-09-08T03:54:41.111Z,11.18
2023-09-08T03:57:08.478Z,14.20
2023-09-08T03:59:35.950Z,8.32
2023-09-08T04:02:03.265Z,7.93
2023-09-08T04:04:30.820Z,11.50
2023-09-08T04:06:58.122Z,7.72
2023-09-08T04:09:26.033Z,9.38
2023-09-08T04:11:53.518Z,7.53
2023-09-08T04:14:21.972Z,13.20
2023-09-08T04:16:49.183Z,9.40
2023-09-08T04:19:16.810Z,11.95
2023-09-08T04:21:43.966Z,13.15
2023-09-08T04:24:11.941Z,13.70
2023-09-08T04:26:39.412Z,11.27
2023-09-08T04:29:07.564Z,8.55
2023-09-08T04:31:36.313Z,6.90
2023-09-08T04:34:04.180Z,8.10
2023-09-08T04:36:31.696Z,9.45
2023-09-08T04:38:59.469Z,22.50
2023-09-08T04:41:26.873Z,14.43
2023-09-08T04:43:55.149Z,8.10
2023-09-08T04:46:22.522Z,40.13
2023-09-08T04:48:50.335Z,22.13
2023-09-08T04:51:18.674Z,85.80
2023-09-08T04:53:46.796Z,44.97
2023-09-08T04:56:15.086Z,38.22
2023-09-08T04:58:43.832Z,27.65
2023-09-08T05:01:11.153Z,32.47
2023-09-08T05:03:40.313Z,28.98
2023-09-08T05:08:36.660Z,12.65
2023-09-08T05:11:05.440Z,9.55
2023-09-08T05:13:33.410Z,12.90
2023-09-08T05:16:12.665Z,10.15
2023-09-08T05:18:45.621Z,9.63
2023-09-08T05:21:15.296Z,15.23
2023-09-08T05:23:43.025Z,10.82
2023-09-08T05:26:12.513Z,18.08
2023-09-08T05:28:40.513Z,13.90
2023-09-08T05:31:08.681Z,10.43
2023-09-08T05:33:36.596Z,12.05
2023-09-08T05:36:04.829Z,16.23
2023-09-08T05:38:32.950Z,9.82
2023-09-08T05:41:01.090Z,8.20
2023-09-08T05:43:28.718Z,8.55
2023-09-08T05:45:56.826Z,13.00
2023-09-08T05:48:24.407Z,11.93
2023-09-08T05:50:51.771Z,10.18
2023-09-08T05:53:19.453Z,15.20
2023-09-08T05:55:47.114Z,11.48
2023-09-08T05:58:14.691Z,10.48
2023-09-08T06:00:42.483Z,12.45
2023-09-08T06:03:10.406Z,35.65
2023-09-08T06:05:38.280Z,14.55
2023-09-08T06:08:07.935Z,19.67
2023-09-08T06:10:39.878Z,11.32
2023-09-08T06:13:09.194Z,9.02
2023-09-08T06:15:38.102Z,12.68
2023-09-08T06:18:06.411Z,20.25
2023-09-08T06:20:34.289Z,12.57
2023-09-08T06:23:03.313Z,10.52
2023-09-08T06:25:30.994Z,9.43
2023-09-08T06:27:58.561Z,9.98
2023-09-08T06:30:25.789Z,7.80
2023-09-08T06:32:53.565Z,10.50
2023-09-08T06:35:20.931Z,12.55
2023-09-08T06:37:48.640Z,12.13
2023-09-08T06:40:16.963Z,6.97
2023-09-08T06:42:44.547Z,11.70
2023-09-08T06:45:19.421Z,10.18
2023-09-08T06:47:47.991Z,7.38
2023-09-08T06:50:15.782Z,11.13
2023-09-08T06:52:43.310Z,10.50
2023-09-08T06:55:10.687Z,8.73
2023-09-08T06:57:39.074Z,8.27
2023-09-08T07:00:09.676Z,9.13
2023-09-08T07:02:39.078Z,9.60
2023-09-08T07:05:09.408Z,10.35
2023-09-08T07:07:37.514Z,11.23
2023-09-08T07:10:05.767Z,13.15
2023-09-08T07:12:33.440Z,10.85
2023-09-08T07:15:03.754Z,8.07
2023-09-08T07:17:31.637Z,10.43
2023-09-08T07:19:59.071Z,7.45
2023-09-08T07:22:27.178Z,6.40
2023-09-08T07:24:54.423Z,8.85
2023-09-08T07:27:21.989Z,5.95
2023-09-08T07:29:50.751Z,7.15
2023-09-08T07:32:19.374Z,11.63
2023-09-08T07:34:49.062Z,7.95
2023-09-08T07:37:16.894Z,4.85
2023-09-08T07:39:44.292Z,7.05
2023-09-08T07:42:12.139Z,4.32
2023-09-08T07:44:39.447Z,6.32
2023-09-08T07:47:07.181Z,5.57
2023-09-08T07:49:35.309Z,6.85
2023-09-08T07:52:05.319Z,6.97
2023-09-08T07:57:00.532Z,5.63
2023-09-08T07:59:27.973Z,5.13
2023-09-08T08:01:55.663Z,5.43
2023-09-08T08:04:23.208Z,8.48
2023-09-08T08:06:50.908Z,4.85
2023-09-08T08:09:18.112Z,6.85
2023-09-08T08:11:45.792Z,4.63
2023-09-08T08:14:13.278Z,5.85
2023-09-08T08:16:40.841Z,7.80
2023-09-08T08:19:08.198Z,6.30
2023-09-08T08:21:35.809Z,4.85
2023-09-08T08:24:03.139Z,3.92
2023-09-08T08:26:33.820Z,4.78
2023-09-08T08:29:01.068Z,4.43
2023-09-08T08:31:28.614Z,3.95
2023-09-08T08:33:55.773Z,4.22
2023-09-08T08:36:23.333Z,3.75
2023-09-08T08:38:50.777Z,6.22
2023-09-08T08:41:18.284Z,6.82
2023-09-08T08:43:46.511Z,5.28
2023-09-08T08:46:15.389Z,8.55
2023-09-08T08:48:43.973Z,9.25
2023-09-08T08:51:12.731Z,5.07
2023-09-08T08:53:40.571Z,12.38
2023-09-08T08:56:09.694Z,9.50
2023-09-08T08:58:40.278Z,4.00
2023-09-08T09:01:08.886Z,4.57
2023-09-08T09:03:39.154Z,3.35
2023-09-08T09:06:06.906Z,4.60
2023-09-08T09:08:35.408Z,3.40
2023-09-08T09:11:03.312Z,4.50
2023-09-08T09:13:30.572Z,5.07
2023-09-08T09:16:04.496Z,5.28
2023-09-08T09:18:32.441Z,5.35
2023-09-08T09:21:02.317Z,3.30
2023-09-08T09:23:31.570Z,3.10
2023-09-08T09:28:29.985Z,3.38
2023-09-08T09:31:00.070Z,5.25
2023-09-08T09:33:29.180Z,6.03
2023-09-08T09:38:28.302Z,3.08
2023-09-08T09:40:56.454Z,2.72
2023-09-08T09:43:24.308Z,4.18
2023-09-08T09:45:52.190Z,3.42
2023-09-08T09:48:22.017Z,6.85
2023-09-08T09:50:50.283Z,2.90
2023-09-08T09:53:19.170Z,6.13
2023-09-08T09:55:47.458Z,4.72
2023-09-08T09:58:16.486Z,4.28
2023-09-08T10:00:49.505Z,4.25
2023-09-08T10:03:19.933Z,4.72
2023-09-08T10:05:50.390Z,3.30
2023-09-08T10:08:18.656Z,7.07
2023-09-08T10:10:48.902Z,6.70
2023-09-08T10:13:23.791Z,8.27
2023-09-08T10:15:53.360Z,4.32
2023-09-08T10:18:22.625Z,3.28
2023-09-08T10:23:28.434Z,5.00
2023-09-08T10:26:06.870Z,3.92
2023-09-08T10:28:35.215Z,2.92
2023-09-08T10:31:04.233Z,3.80
2023-09-08T10:33:32.926Z,3.67
2023-09-08T10:38:36.094Z,6.32
2023-09-08T10:41:16.668Z,5.13
2023-09-08T10:43:44.874Z,5.95
2023-09-08T10:46:23.148Z,4.60
2023-09-08T10:48:50.740Z,3.88
2023-09-08T10:51:18.632Z,5.80
2023-09-08T10:53:51.584Z,7.50
2023-09-08T10:56:22.028Z,3.55
2023-09-08T10:58:53.818Z,4.15
2023-09-08T11:01:29.626Z,4.55
2023-09-08T11:03:59.434Z,5.63
2023-09-08T11:06:31.635Z,3.20
2023-09-08T11:09:08.010Z,3.00
2023-09-08T11:11:38.006Z,4.00
2023-09-08T11:14:05.512Z,3.30
2023-09-08T11:16:34.621Z,3.15
2023-09-08T11:19:05.889Z,3.25
2023-09-08T11:21:38.947Z,5.78
2023-09-08T11:24:07.910Z,4.63
2023-09-08T11:26:38.101Z,3.67
2023-09-08T11:29:06.633Z,4.68
2023-09-08T11:31:35.855Z,3.72
2023-09-08T11:34:06.675Z,3.38
2023-09-08T11:36:37.494Z,4.38
2023-09-08T11:39:07.219Z,3.95
2023-09-08T11:41:35.873Z,3.78
2023-09-08T11:44:03.331Z,15.25
2023-09-08T11:46:31.531Z,5.93
2023-09-08T11:48:59.527Z,5.40
2023-09-08T11:51:27.589Z,2.92
2023-09-08T11:53:56.094Z,5.00
2023-09-08T11:56:23.941Z,4.63
2023-09-08T11:58:51.952Z,4.10
2023-09-08T12:01:20.771Z,3.30
2023-09-08T12:03:56.114Z,4.68
2023-09-08T12:06:28.640Z,3.40
2023-09-08T12:08:57.461Z,3.97
2023-09-08T12:11:25.080Z,3.20
2023-09-08T12:14:01.619Z,6.47
2023-09-08T12:16:29.235Z,27.02
2023-09-08T12:18:56.703Z,3.17
2023-09-08T12:21:24.416Z,6.38
2023-09-08T12:23:53.108Z,3.42
2023-09-08T12:26:21.969Z,2.65
2023-09-08T12:28:49.755Z,7.32
2023-09-08T12:31:19.239Z,4.93
2023-09-08T12:33:47.617Z,7.85
2023-09-08T12:36:20.168Z,3.00
2023-09-08T12:38:54.157Z,4.25
2023-09-08T12:41:22.134Z,5.15
2023-09-08T12:43:49.979Z,2.60
2023-09-08T12:46:19.946Z,5.80
2023-09-08T12:48:47.426Z,3.92
2023-09-08T12:51:15.170Z,4.78
2023-09-08T12:53:42.546Z,5.97
2023-09-08T12:56:10.340Z,4.15
2023-09-08T12:58:38.002Z,4.05
2023-09-08T13:01:07.984Z,3.45
2023-09-08T13:03:35.325Z,3.13
2023-09-08T13:06:03.101Z,3.75
2023-09-08T13:08:30.508Z,11.10
2023-09-08T13:10:58.418Z,7.82
2023-09-08T13:13:25.995Z,2.85
2023-09-08T13:15:53.520Z,5.30
2023-09-08T13:18:20.822Z,4.32
2023-09-08T13:20:48.766Z,5.90
2023-09-08T13:23:16.514Z,4.85
2023-09-08T13:25:45.871Z,4.22
2023-09-08T13:28:13.339Z,5.43
2023-09-08T13:30:41.230Z,4.90
2023-09-08T13:33:08.883Z,5.60
2023-09-08T13:35:36.816Z,4.53
2023-09-08T13:38:05.232Z,6.70
2023-09-08T13:40:33.381Z,2.70
2023-09-08T13:43:01.595Z,3.72
2023-09-08T13:45:29.784Z,3.95
2023-09-08T13:47:57.399Z,4.85
2023-09-08T13:50:27.149Z,4.95
2023-09-08T13:52:55.906Z,5.25
2023-09-08T13:55:36.923Z,6.25
2023-09-08T13:58:09.157Z,4.05
2023-09-08T14:00:44.926Z,5.90
2023-09-08T14:03:14.972Z,4.97
2023-09-08T14:08:18.483Z,3.30
2023-09-08T14:13:25.711Z,3.60
2023-09-08T14:15:54.487Z,3.20
2023-09-08T14:18:21.946Z,4.95
2023-09-08T14:20:49.503Z,5.18
2023-09-08T14:23:19.590Z,3.30
2023-09-08T14:25:47.488Z,5.18
2023-09-08T14:28:14.837Z,8.45
2023-09-08T14:30:45.681Z,6.90
2023-09-08T14:33:13.116Z,7.47
2023-09-08T14:35:44.692Z,4.85
2023-09-08T14:38:13.330Z,8.23
2023-09-08T14:40:41.036Z,7.70
2023-09-08T14:43:08.816Z,3.90
2023-09-08T14:45:36.587Z,3.83
2023-09-08T14:48:04.259Z,4.40
2023-09-08T14:50:32.807Z,6.53
2023-09-08T14:53:00.696Z,6.28
2023-09-08T14:55:28.518Z,5.72
2023-09-08T14:57:56.620Z,6.18
2023-09-08T15:00:24.350Z,6.22
2023-09-08T15:02:51.929Z,6.60
2023-09-08T15:05:19.956Z,4.65
2023-09-08T15:07:47.690Z,3.70
2023-09-08T15:10:18.935Z,8.68
2023-09-08T15:12:47.011Z,5.47
2023-09-08T15:15:15.282Z,6.80
2023-09-08T15:17:43.099Z,98.00
2023-09-08T15:20:11.368Z,19.42
2023-09-08T15:22:39.057Z,45.60
2023-09-08T15:25:07.754Z,9.88
2023-09-08T15:27:35.742Z,5.35
2023-09-08T15:30:03.884Z,5.75
2023-09-08T15:32:31.341Z,5.10
2023-09-08T15:34:59.331Z,5.05
2023-09-08T15:37:27.060Z,6.80
2023-09-08T15:39:55.343Z,6.10
2023-09-08T15:42:22.999Z,13.60
2023-09-08T15:44:50.808Z,5.03
2023-09-08T15:47:20.276Z,4.72
2023-09-08T15:49:48.184Z,4.50
2023-09-08T15:52:17.182Z,6.38
2023-09-08T15:54:45.611Z,5.65
2023-09-08T15:57:13.367Z,10.55
2023-09-08T15:59:41.458Z,5.90
2023-09-08T16:02:09.189Z,5.30
2023-09-08T16:04:37.603Z,4.45
2023-09-08T16:07:05.512Z,5.38
2023-09-08T16:09:33.287Z,7.13
2023-09-08T16:12:00.669Z,4.93
2023-09-08T16:14:28.347Z,7.25
2023-09-08T16:16:55.701Z,8.65
2023-09-08T16:19:23.379Z,7.43
2023-09-08T16:21:50.975Z,8.52
2023-09-08T16:24:18.692Z,4.28
2023-09-08T16:26:46.286Z,9.73
2023-09-08T16:29:14.198Z,5.90
2023-09-08T16:31:41.560Z,11.30
2023-09-08T16:34:09.191Z,8.70
2023-09-08T16:36:38.629Z,8.18
2023-09-08T16:39:07.520Z,11.25
2023-09-08T16:41:34.841Z,14.98
2023-09-08T16:44:02.466Z,13.93
2023-09-08T16:46:29.785Z,9.48
2023-09-08T16:48:57.573Z,10.50
2023-09-08T16:51:24.862Z,9.18
2023-09-08T16:53:52.640Z,8.70
2023-09-08T16:56:19.911Z,14.15
2023-09-08T16:58:47.557Z,31.02
2023-09-08T17:01:15.127Z,42.40
2023-09-08T17:03:43.514Z,29.80
2023-09-08T17:06:10.982Z,33.50
2023-09-08T17:08:38.938Z,23.90
2023-09-08T17:11:07.595Z,12.95
2023-09-08T17:13:36.531Z,8.93
2023-09-08T17:16:04.695Z,9.68
2023-09-08T17:18:34.905Z,9.77
2023-09-08T17:21:05.340Z,10.25
2023-09-08T17:23:33.301Z,10.63
2023-09-08T17:26:02.229Z,10.38
2023-09-08T17:28:29.838Z,8.90
2023-09-08T17:30:57.138Z,9.38
2023-09-08T17:33:24.870Z,15.23
2023-09-08T17:35:52.269Z,23.17
2023-09-08T17:38:20.095Z,31.40
2023-09-08T17:40:47.483Z,55.33
2023-09-08T17:43:15.123Z,88.47
2023-09-08T17:45:42.646Z,71.95
2023-09-08T17:48:10.425Z,90.60
2023-09-08T17:50:38.198Z,107.10
2023-09-08T17:53:05.829Z,82.28
2023-09-08T17:55:33.135Z,97.75
2023-09-08T17:58:00.995Z,111.72
2023-09-08T18:00:28.835Z,69.50
2023-09-08T18:02:56.881Z,60.22
2023-09-08T18:05:24.404Z,37.38
2023-09-08T18:07:52.143Z,35.05
2023-09-08T18:10:19.946Z,72.05
2023-09-08T18:12:47.990Z,113.28
2023-09-08T18:15:15.633Z,118.05
2023-09-08T18:17:48.889Z,77.65
2023-09-08T18:20:28.458Z,70.32
2023-09-08T18:22:57.726Z,50.17
2023-09-08T18:25:25.312Z,43.70
2023-09-08T18:27:54.168Z,41.97
2023-09-08T18:30:22.056Z,38.33
2023-09-08T18:32:49.928Z,64.20
2023-09-08T18:35:17.641Z,59.00
2023-09-08T18:37:45.340Z,36.92
2023-09-08T18:40:12.694Z,40.45
2023-09-08T18:42:40.485Z,34.40
2023-09-08T18:45:08.892Z,46.05
2023-09-08T18:47:36.989Z,34.93
2023-09-08T18:50:05.741Z,68.47
2023-09-08T18:52:33.980Z,61.83
2023-09-08T18:55:01.508Z,51.20
2023-09-08T18:57:32.099Z,40.95
2023-09-08T19:00:00.118Z,41.75
2023-09-08T19:02:32.333Z,37.83
2023-09-08T19:05:00.464Z,37.15
2023-09-08T19:07:28.878Z,28.33
2023-09-08T19:09:56.438Z,50.05
2023-09-08T19:12:24.522Z,70.25
2023-09-08T19:14:51.941Z,40.08
2023-09-08T19:17:19.878Z,39.67
2023-09-08T19:19:48.253Z,40.33
2023-09-08T19:22:16.360Z,29.05
2023-09-08T19:24:45.777Z,21.85
2023-09-08T19:29:41.707Z,32.20
2023-09-08T19:32:11.479Z,26.50
2023-09-08T19:34:39.685Z,35.28
2023-09-08T19:37:08.777Z,33.85
2023-09-08T19:39:36.533Z,18.45
2023-09-08T19:42:04.981Z,25.45
2023-09-08T19:44:33.969Z,24.13
2023-09-08T19:47:02.761Z,28.35
2023-09-08T19:49:30.384Z,25.88
2023-09-08T19:51:58.546Z,23.05
2023-09-08T19:54:26.148Z,22.25
2023-09-08T19:56:54.051Z,24.25
2023-09-08T19:59:54.569Z,18.60
2023-09-08T20:02:22.719Z,18.02
2023-09-08T20:04:50.348Z,43.45
2023-09-08T20:07:18.165Z,18.33
2023-09-08T20:09:46.791Z,15.18
2023-09-08T20:12:15.568Z,17.43
2023-09-08T20:14:43.881Z,16.45
2023-09-08T20:17:14.370Z,15.30
2023-09-08T20:19:42.705Z,17.73
2023-09-08T20:22:10.653Z,15.63
2023-09-08T20:24:40.767Z,9.50
2023-09-08T20:27:11.680Z,12.43
2023-09-08T20:29:39.460Z,10.55
2023-09-08T20:32:08.882Z,16.60
2023-09-08T20:34:36.977Z,19.97
2023-09-08T20:37:04.910Z,23.40
2023-09-08T20:39:32.496Z,19.63
2023-09-08T20:42:00.239Z,28.95
2023-09-08T20:44:27.688Z,30.83
2023-09-08T20:46:55.467Z,23.48
2023-09-08T20:49:24.315Z,15.65
2023-09-08T20:51:52.138Z,16.35
2023-09-08T20:54:20.739Z,12.35
2023-09-08T20:56:49.626Z,14.35
2023-09-08T20:59:17.377Z,12.35
2023-09-08T21:01:45.158Z,13.98
2023-09-08T21:04:12.615Z,9.73
2023-09-08T21:06:41.458Z,12.10
2023-09-08T21:09:09.630Z,13.23
2023-09-08T21:11:37.566Z,10.77
2023-09-08T21:14:06.926Z,15.38
2023-09-08T21:16:34.526Z,13.07
2023-09-08T21:19:01.815Z,9.13
2023-09-08T21:21:29.596Z,12.15
2023-09-08T21:23:56.856Z,13.52
2023-09-08T21:26:24.648Z,10.70
2023-09-08T21:28:52.053Z,11.27
2023-09-08T21:31:19.785Z,12.23
2023-09-08T21:33:49.858Z,13.13
2023-09-08T21:36:18.645Z,11.02
2023-09-08T21:38:46.278Z,15.57
2023-09-08T21:41:14.388Z,11.88
2023-09-08T21:43:41.613Z,14.55
2023-09-08T21:46:10.483Z,12.55
2023-09-08T21:48:38.482Z,13.13
2023-09-08T21:51:06.562Z,14.13
2023-09-08T21:53:34.114Z,15.15
2023-09-08T21:56:02.120Z,12.38
2023-09-08T21:58:29.932Z,14.15
2023-09-08T22:00:57.641Z,14.68
2023-09-08T22:03:25.122Z,12.57
2023-09-08T22:05:52.961Z,10.07
2023-09-08T22:08:20.163Z,16.58
2023-09-08T22:10:47.891Z,15.48
2023-09-08T22:13:15.199Z,18.85
2023-09-08T22:15:42.789Z,14.30
2023-09-08T22:18:10.078Z,12.00
2023-09-08T22:20:37.789Z,14.75
2023-09-08T22:23:05.659Z,13.10
2023-09-08T22:25:34.940Z,15.35
2023-09-08T22:28:02.359Z,19.73
2023-09-08T22:30:29.988Z,17.15
2023-09-08T22:32:57.358Z,15.23
2023-09-08T22:35:25.450Z,17.02
2023-09-08T22:37:59.516Z,14.43
2023-09-08T22:40:32.218Z,18.80
2023-09-08T22:43:08.717Z,18.30
2023-09-08T22:45:37.938Z,18.27
2023-09-08T22:48:08.669Z,21.38
2023-09-08T22:50:37.162Z,15.27
2023-09-08T22:53:04.966Z,15.40
2023-09-08T22:55:32.796Z,17.38
2023-09-08T22:58:00.335Z,13.60
2023-09-08T23:00:28.280Z,13.85
2023-09-08T23:02:56.215Z,11.60
2023-09-08T23:05:23.934Z,10.93
2023-09-08T23:07:55.459Z,13.25
2023-09-08T23:10:23.240Z,15.50
2023-09-08T23:12:50.492Z,18.85
2023-09-08T23:15:18.439Z,12.82
2023-09-08T23:17:45.919Z,13.20
2023-09-08T23:20:16.787Z,12.55
2023-09-08T23:22:45.359Z,12.88
2023-09-08T23:25:13.592Z,12.52
2023-09-08T23:27:41.069Z,12.40
2023-09-08T23:30:09.208Z,12.85
2023-09-08T23:32:36.688Z,11.02
2023-09-08T23:35:05.341Z,12.23
2023-09-08T23:37:33.827Z,14.63
2023-09-08T23:40:01.334Z,15.13
2023-09-08T23:42:28.570Z,14.05
2023-09-08T23:44:56.115Z,11.10
2023-09-08T23:47:23.388Z,12.43
2023-09-08T23:49:51.181Z,9.50
2023-09-08T23:52:18.464Z,13.60
2023-09-08T23:54:46.224Z,12.23
2023-09-08T23:57:13.755Z,10.90
2023-09-08T23:59:41.523Z,10.98
